This is the latest recevied weather packets stored in our database for station/object SY3EBK-13. If no packets are shown the sender has not sent any weather packets the latest 10 day(s).
| Time | Temp. | Humidity | Pressure | Rain* | Wind** | Luminosity | Snow |
|---|---|---|---|---|---|---|---|
| 1777442452 | 14.44° C | 56% | 916 hPa | - | 0 m/s | - | - |
| 1777441552 | 13.33° C | 58% | 916 hPa | - | 0 m/s | - | - |
| 1777440651 | 12.78° C | 61% | 915.9 hPa | - | 0 m/s | - | - |
| 1777439752 | 12.22° C | 64% | 915.9 hPa | - | 0 m/s | - | - |
| 1777438852 | 11.11° C | 65% | 915.9 hPa | - | 0 m/s | - | - |
| 1777437952 | 10.56° C | 65% | 915.8 hPa | - | 0 m/s | - | - |
| 1777437052 | 10.56° C | 65% | 915.7 hPa | - | 0 m/s | - | - |
| 1777436152 | 10.56° C | 64% | 915.7 hPa | - | 0 m/s | - | - |
| 1777434352 | 11.11° C | 62% | 915.4 hPa | - | 0 m/s | - | - |
| 1777432552 | 10.56° C | 60% | 915.4 hPa | - | 0 m/s | - | - |
| 1777431652 | 11.11° C | 60% | 915.4 hPa | - | 0 m/s | - | - |
| 1777419052 | 12.22° C | 55% | 916 hPa | - | 0 m/s | - | - |
| 1777413652 | 12.78° C | 49% | 916.1 hPa | - | 0 m/s | - | - |
| 1777410052 | 13.89° C | 54% | 916.3 hPa | - | 0 m/s | - | - |
| 1777409152 | 13.89° C | 55% | 916.4 hPa | - | 0 m/s | - | - |
| 1777408252 | 13.89° C | 56% | 916.3 hPa | - | 0 m/s | - | - |
| 1777407352 | 13.89° C | 57% | 916.3 hPa | - | 0 m/s | - | - |
| 1777406452 | 13.89° C | 57% | 916.2 hPa | - | 0 m/s | - | - |
| 1777404652 | 14.44° C | 56% | 916 hPa | - | 0 m/s | - | - |
| 1777403752 | 14.44° C | 56% | 915.9 hPa | - | 0 m/s | - | - |
| 1777397452 | 16.11° C | 53% | 915.1 hPa | - | 0 m/s | - | - |
| 1777395652 | 17.22° C | 51% | 914.8 hPa | - | 0 m/s | - | - |
| 1777392052 | 18.89° C | 45% | 914.7 hPa | - | 0 m/s | - | - |
| 1777391153 | 19.44° C | 45% | 914.8 hPa | - | 0 m/s | - | - |
| 1777390252 | 18.89° C | 44% | 914.8 hPa | - | 0 m/s | - | - |
* Rain since midnight (hover to see other rain measurements)
** Current wind speed in m/s (hover to see current wind gust speed)